Time;durP1;ratioP1;P1;durP2;ratioP2;P2;SDS_P1;SDS_P2;PMS_P1;PMS_P2;Temp;Humidity;BMP_temperature;BMP_pressure;BME280_temperature;BME280_humidity;BME280_pressure;Samples;Min_cycle;Max_cycle;Signal;HPM_P1;HPM_P2
2022/02/09 00:01:36;;;;;;;4.30;4.00;;;11.90;99.90;;;;;;5031946;28;20457;-72
2022/02/09 00:07:14;;;;;;;5.03;4.70;;;11.90;99.90;;;;;;4975330;28;20895;-72
2022/02/09 00:09:43;;;;;;;4.90;4.47;;;12.00;99.90;;;;;;5025719;28;20930;-72
2022/02/09 00:12:16;;;;;;;4.93;4.57;;;12.00;99.90;;;;;;5032427;28;20413;-72
2022/02/09 00:41:40;;;;;;;4.77;4.47;;;11.90;99.90;;;;;;5049950;28;20474;-72
2022/02/09 00:44:58;;;;;;;5.03;4.63;;;11.90;99.90;;;;;;5051750;28;20437;-72
2022/02/09 01:57:31;;;;;;;3.50;3.30;;;11.70;99.90;;;;;;5041289;28;20781;-75
2022/02/09 01:59:56;;;;;;;3.10;3.00;;;11.50;99.90;;;;;;5053996;28;20409;-71
2022/02/09 02:02:23;;;;;;;3.10;3.00;;;11.50;99.90;;;;;;5036702;28;20667;-72
2022/02/09 02:04:49;;;;;;;3.23;3.03;;;11.50;99.90;;;;;;5053643;28;20180;-71
2022/02/09 02:10:20;;;;;;;3.20;3.10;;;11.50;99.90;;;;;;4973302;28;20435;-71
2022/02/09 02:18:27;;;;;;;3.90;3.70;;;11.60;99.90;;;;;;5039556;28;20824;-71
2022/02/09 02:26:13;;;;;;;4.93;4.63;;;11.70;99.90;;;;;;5033277;28;20187;-72
2022/02/09 02:34:31;;;;;;;4.73;4.37;;;11.80;99.90;;;;;;5051520;28;20418;-71
2022/02/09 02:45:58;;;;;;;5.50;5.10;;;11.70;99.90;;;;;;5052120;28;20507;-72
2022/02/09 03:09:52;;;;;;;7.57;6.90;;;11.60;99.90;;;;;;5053614;28;20726;-71
2022/02/09 03:18:03;;;;;;;7.60;7.10;;;11.60;99.90;;;;;;5032113;28;20929;-71
2022/02/09 03:20:38;;;;;;;7.67;7.03;;;11.50;99.90;;;;;;5032826;28;20497;-71
2022/02/09 03:23:20;;;;;;;7.40;6.80;;;11.40;99.90;;;;;;5036871;28;20450;-72
2022/02/09 03:57:26;;;;;;;7.03;6.53;;;11.30;99.90;;;;;;5052648;28;20409;-72
2022/02/09 03:59:51;;;;;;;6.50;6.10;;;11.40;99.90;;;;;;5051562;28;20825;-72
2022/02/09 04:02:17;;;;;;;7.67;7.07;;;11.40;99.90;;;;;;5051960;28;20467;-72
2022/02/09 04:04:46;;;;;;;7.07;6.40;;;11.40;99.90;;;;;;5050712;28;20188;-72
2022/02/09 04:07:13;;;;;;;6.10;5.67;;;11.40;99.90;;;;;;5034357;28;20466;-71
2022/02/09 04:09:44;;;;;;;6.20;5.80;;;11.40;99.90;;;;;;5051846;28;20505;-75
2022/02/09 04:12:34;;;;;;;6.63;4.90;;;11.40;99.90;;;;;;5052264;28;20463;-71
2022/02/09 04:15:29;;;;;;;5.30;5.00;;;11.40;99.90;;;;;;5033558;28;21054;-71
2022/02/09 04:38:50;;;;;;;7.63;7.23;;;11.40;99.90;;;;;;5051756;28;20900;-71
2022/02/09 04:51:33;;;;;;;6.13;5.63;;;11.60;99.90;;;;;;5055870;28;20514;-72
2022/02/09 05:18:43;;;;;;;7.33;6.80;;;11.50;99.90;;;;;;5055285;28;20416;-71
2022/02/09 05:28:05;;;;;;;8.57;7.73;;;11.50;99.90;;;;;;5034434;28;20414;-72
2022/02/09 05:30:31;;;;;;;7.43;6.93;;;11.50;99.90;;;;;;5035491;28;20852;-71
2022/02/09 05:32:57;;;;;;;6.30;5.90;;;11.50;99.90;;;;;;5036296;28;20431;-72
2022/02/09 05:35:23;;;;;;;10.83;8.67;;;11.30;99.90;;;;;;5050713;28;20428;-72
2022/02/09 05:37:50;;;;;;;5.93;5.53;;;11.30;99.90;;;;;;5054212;28;20460;-72
2022/02/09 05:40:16;;;;;;;6.17;5.63;;;11.30;99.90;;;;;;5054889;28;20468;-71
2022/02/09 05:42:42;;;;;;;6.67;5.90;;;11.30;99.90;;;;;;5054894;28;20514;-72
2022/02/09 05:45:08;;;;;;;6.10;5.60;;;11.30;99.90;;;;;;5050600;28;20892;-72
2022/02/09 05:57:52;;;;;;;8.80;7.97;;;11.20;99.90;;;;;;5032414;28;20738;-74
2022/02/09 06:00:17;;;;;;;6.83;6.23;;;11.20;99.90;;;;;;5034550;28;20425;-73
2022/02/09 06:02:47;;;;;;;6.73;6.13;;;11.30;99.90;;;;;;5033932;28;20432;-73
2022/02/09 06:05:14;;;;;;;7.00;6.30;;;11.30;99.90;;;;;;5033628;28;20186;-73
2022/02/09 06:07:41;;;;;;;9.37;8.50;;;11.30;99.90;;;;;;5039403;28;20525;-73
2022/02/09 06:10:17;;;;;;;8.60;7.53;;;11.30;99.90;;;;;;5047590;28;20441;-73
2022/02/09 06:12:51;;;;;;;6.70;6.10;;;11.40;99.90;;;;;;5044480;28;20453;-72
2022/02/09 06:20:28;;;;;;;6.37;5.80;;;11.50;99.90;;;;;;5034531;28;20184;-73
2022/02/09 06:22:54;;;;;;;6.50;6.00;;;11.50;99.90;;;;;;5034887;28;20526;-73
2022/02/09 06:25:19;;;;;;;7.20;6.60;;;11.50;99.90;;;;;;5033490;28;20521;-73
2022/02/09 06:27:45;;;;;;;6.70;6.10;;;11.50;99.90;;;;;;5033284;28;20654;-74
2022/02/09 06:30:11;;;;;;;6.60;6.00;;;11.50;99.90;;;;;;5016791;28;20191;-73
2022/02/09 06:32:37;;;;;;;6.37;5.73;;;11.50;99.90;;;;;;5038694;28;20182;-73
2022/02/09 06:35:02;;;;;;;9.10;8.33;;;11.60;99.90;;;;;;5032936;28;20182;-73
2022/02/09 06:37:41;;;;;;;6.70;6.17;;;11.60;99.90;;;;;;5033179;28;20178;-72
2022/02/09 06:40:07;;;;;;;5.83;5.53;;;11.50;99.90;;;;;;5019080;28;20421;-73
2022/02/09 06:42:35;;;;;;;5.33;5.03;;;11.50;99.90;;;;;;5033477;28;20798;-72
2022/02/09 06:45:10;;;;;;;5.87;5.37;;;11.40;99.90;;;;;;5046783;28;20941;-72
2022/02/09 06:47:37;;;;;;;5.40;5.00;;;11.40;99.90;;;;;;5049534;28;20469;-72
2022/02/09 06:50:08;;;;;;;5.40;5.00;;;11.40;99.90;;;;;;5044252;28;21035;-72
2022/02/09 06:52:38;;;;;;;5.83;5.33;;;11.30;99.90;;;;;;5050072;28;20423;-73
2022/02/09 06:55:18;;;;;;;6.07;5.60;;;11.30;99.90;;;;;;5040732;28;20460;-73
2022/02/09 07:00:19;;;;;;;5.10;4.70;;;11.40;99.90;;;;;;5038697;28;20765;-73
2022/02/09 07:02:45;;;;;;;6.40;5.80;;;11.50;99.90;;;;;;5052214;28;20786;-72
2022/02/09 07:05:12;;;;;;;7.03;6.53;;;11.50;99.90;;;;;;5030687;28;20785;-73
2022/02/09 07:07:38;;;;;;;6.73;5.80;;;11.60;99.90;;;;;;5035474;28;20793;-72
2022/02/09 07:10:08;;;;;;;7.20;6.70;;;11.60;99.90;;;;;;5048341;28;20431;-73
2022/02/09 07:12:33;;;;;;;5.80;5.40;;;11.60;99.90;;;;;;5032482;28;20424;-72
2022/02/09 07:14:59;;;;;;;6.53;6.03;;;11.70;99.90;;;;;;5032315;28;20896;-74
2022/02/09 07:17:26;;;;;;;6.97;6.47;;;11.60;99.90;;;;;;5040959;28;20520;-72
2022/02/09 07:19:56;;;;;;;5.77;5.37;;;11.60;99.90;;;;;;5047626;28;20429;-74
2022/02/09 07:22:26;;;;;;;7.60;7.10;;;11.70;99.90;;;;;;5045334;28;20471;-73
2022/02/09 07:25:04;;;;;;;8.80;6.80;;;11.60;99.90;;;;;;5052303;28;20767;-74
2022/02/09 07:30:27;;;;;;;10.10;6.90;;;11.60;99.90;;;;;;5023924;28;20854;-72
2022/02/09 07:32:55;;;;;;;8.93;8.23;;;11.60;99.90;;;;;;5031539;28;20980;-73
2022/02/09 07:35:22;;;;;;;7.83;7.23;;;11.60;99.90;;;;;;5032889;28;20766;-73
2022/02/09 07:37:48;;;;;;;8.50;7.83;;;11.60;99.90;;;;;;5037653;28;20470;-75
2022/02/09 07:40:15;;;;;;;9.77;9.07;;;11.60;99.90;;;;;;5030120;28;20428;-72
2022/02/09 07:42:51;;;;;;;7.87;7.17;;;11.50;99.90;;;;;;5050563;28;20463;-73
2022/02/09 07:45:45;;;;;;;8.30;7.50;;;11.40;99.90;;;;;;5040920;28;20428;-73
2022/02/09 07:51:01;;;;;;;10.27;9.37;;;11.40;99.90;;;;;;5043767;28;20416;-72
2022/02/09 07:53:37;;;;;;;9.33;8.53;;;11.40;99.90;;;;;;5050239;28;20439;-72
2022/02/09 07:56:03;;;;;;;9.87;8.87;;;11.30;99.90;;;;;;5040089;28;20473;-72
2022/02/09 07:58:28;;;;;;;11.00;9.93;;;11.30;99.90;;;;;;5047419;28;20436;-71
2022/02/09 08:00:54;;;;;;;9.90;9.10;;;11.20;99.90;;;;;;5038646;28;20455;-71
2022/02/09 08:03:20;;;;;;;11.13;10.10;;;11.20;99.90;;;;;;5033433;28;20186;-72
2022/02/09 08:05:45;;;;;;;9.63;8.73;;;11.20;99.90;;;;;;5047566;28;20213;-72
2022/02/09 08:08:11;;;;;;;9.60;8.73;;;11.20;99.90;;;;;;5051358;28;20691;-72
2022/02/09 08:10:44;;;;;;;9.00;8.20;;;11.20;99.90;;;;;;5047717;28;20193;-72
2022/02/09 08:25:31;;;;;;;10.10;9.20;;;11.20;99.90;;;;;;5034219;28;20429;-73
2022/02/09 08:26:51;;;;;;;10.87;9.87;;;11.20;99.90;;;;;;5035238;28;20431;-73
2022/02/09 08:29:21;;;;;;;11.27;10.33;;;11.20;99.90;;;;;;5051754;28;20404;-73
2022/02/09 08:32:35;;;;;;;10.60;9.70;;;11.20;99.90;;;;;;5032418;28;20511;-73
2022/02/09 08:34:34;;;;;;;12.70;10.03;;;11.20;99.90;;;;;;5031966;28;20507;-74
2022/02/09 08:36:59;;;;;;;10.97;9.87;;;11.20;99.90;;;;;;5035074;28;20975;-73
2022/02/09 08:39:25;;;;;;;9.93;9.03;;;11.20;99.90;;;;;;5036306;28;20205;-72
2022/02/09 08:41:52;;;;;;;13.83;10.73;;;11.20;99.90;;;;;;5042240;28;20208;-72
2022/02/09 08:44:18;;;;;;;11.10;10.10;;;11.20;99.90;;;;;;5042071;28;20186;-72
2022/02/09 08:46:44;;;;;;;10.37;9.47;;;11.20;99.90;;;;;;5032071;28;20419;-75
2022/02/09 08:49:13;;;;;;;11.10;10.00;;;11.30;99.90;;;;;;5046327;28;20181;-75
2022/02/09 08:51:40;;;;;;;11.50;10.10;;;11.40;99.90;;;;;;5051832;28;20614;-76
2022/02/09 08:54:07;;;;;;;10.63;9.60;;;11.70;99.90;;;;;;5051075;28;20789;-76
2022/02/09 08:56:32;;;;;;;10.63;9.63;;;11.90;99.90;;;;;;5036673;28;20420;-76
2022/02/09 08:58:59;;;;;;;10.60;9.60;;;12.10;99.90;;;;;;5031629;28;20413;-76
2022/02/09 09:01:44;;;;;;;10.00;9.10;;;12.40;99.90;;;;;;5037016;28;20288;-76
2022/02/09 09:04:34;;;;;;;9.57;8.70;;;12.60;99.90;;;;;;5031648;28;20401;-76
2022/02/09 09:07:06;;;;;;;8.90;8.20;;;12.80;99.90;;;;;;5037085;28;20444;-75
2022/02/09 09:09:46;;;;;;;11.13;10.23;;;12.90;99.90;;;;;;5040808;28;20918;-75
2022/02/09 09:59:10;;;;;;;6.60;5.50;;;12.30;99.90;;;;;;5034990;28;20410;-72
2022/02/09 10:02:16;;;;;;;5.17;4.77;;;12.40;99.90;;;;;;5034690;28;21011;-72
2022/02/09 10:34:49;;;;;;;3.67;3.40;;;12.00;99.90;;;;;;5039649;28;20446;-72
2022/02/09 10:37:26;;;;;;;4.50;4.20;;;11.90;99.90;;;;;;5032993;28;21001;-72
2022/02/09 10:39:59;;;;;;;4.77;4.43;;;12.00;99.90;;;;;;5017538;28;20531;-72
2022/02/09 10:42:46;;;;;;;4.90;4.60;;;11.90;99.90;;;;;;5034382;28;20446;-72
2022/02/09 10:45:48;;;;;;;5.40;5.00;;;12.00;99.90;;;;;;5033510;28;20405;-72
2022/02/09 10:48:38;;;;;;;4.33;4.03;;;12.00;99.90;;;;;;5015350;28;20924;-72
2022/02/09 10:51:36;;;;;;;4.80;4.50;;;12.00;99.90;;;;;;5034359;28;20519;-73
2022/02/09 10:54:14;;;;;;;5.77;5.17;;;12.10;99.90;;;;;;5053506;28;20417;-73
2022/02/09 10:56:43;;;;;;;6.30;5.70;;;12.10;99.90;;;;;;5053800;28;20444;-72
2022/02/09 10:59:11;;;;;;;4.40;4.10;;;12.10;99.90;;;;;;5049761;28;20436;-72
2022/02/09 11:01:38;;;;;;;5.60;4.90;;;12.10;99.90;;;;;;5016140;28;20803;-71
2022/02/09 11:04:05;;;;;;;5.33;4.93;;;12.10;99.90;;;;;;5033269;28;20418;-72
2022/02/09 11:06:42;;;;;;;5.30;5.00;;;12.10;99.90;;;;;;5034129;28;20553;-72
2022/02/09 11:09:11;;;;;;;5.40;5.00;;;12.00;99.90;;;;;;5032993;28;20398;-72
2022/02/09 11:11:39;;;;;;;6.30;5.90;;;12.10;99.90;;;;;;5033429;28;20520;-72
2022/02/09 11:14:07;;;;;;;6.07;5.67;;;12.10;99.90;;;;;;5014835;28;20830;-72
2022/02/09 11:16:34;;;;;;;5.80;5.40;;;12.10;99.90;;;;;;5032853;28;20951;-72
2022/02/09 11:19:01;;;;;;;6.97;6.40;;;12.10;99.90;;;;;;5014824;28;20425;-76
2022/02/09 11:21:36;;;;;;;6.60;6.00;;;12.10;99.90;;;;;;5033325;28;20896;-72
2022/02/09 11:24:15;;;;;;;6.13;5.63;;;12.10;99.90;;;;;;5032933;28;20480;-72
2022/02/09 11:27:04;;;;;;;6.50;5.80;;;12.10;99.90;;;;;;5033611;28;20796;-72
2022/02/09 11:29:44;;;;;;;7.33;6.73;;;12.30;99.90;;;;;;5033339;28;20913;-72
2022/02/09 11:35:01;;;;;;;7.07;6.33;;;12.20;99.90;;;;;;5033342;28;20456;-71
2022/02/09 11:38:12;;;;;;;6.77;6.17;;;12.30;99.90;;;;;;5033172;28;20400;-72
2022/02/09 12:11:30;;;;;;;5.37;4.97;;;13.20;99.90;;;;;;5032276;28;20444;-72
2022/02/09 12:14:04;;;;;;;6.20;5.80;;;13.50;99.60;;;;;;5032535;28;20891;-71
2022/02/09 12:16:35;;;;;;;6.07;5.57;;;13.70;98.80;;;;;;5032843;28;20772;-71
2022/02/09 12:19:06;;;;;;;5.27;4.87;;;13.70;98.70;;;;;;5032901;28;20429;-71
2022/02/09 12:21:53;;;;;;;5.90;4.80;;;13.60;98.30;;;;;;5032481;28;20475;-71
2022/02/09 12:24:34;;;;;;;5.27;4.87;;;13.50;98.00;;;;;;5031912;28;20500;-71
2022/02/09 12:27:14;;;;;;;5.40;5.00;;;13.50;98.50;;;;;;5032519;28;20407;-71
2022/02/09 12:29:45;;;;;;;5.47;4.97;;;13.60;98.40;;;;;;5031942;28;20431;-71
2022/02/09 12:32:17;;;;;;;5.60;4.73;;;13.30;98.40;;;;;;5031983;28;20418;-72
2022/02/09 12:35:00;;;;;;;6.40;5.80;;;13.20;98.60;;;;;;5032408;28;20446;-71
2022/02/09 12:37:29;;;;;;;5.50;5.10;;;13.20;98.90;;;;;;5032162;28;20408;-72
2022/02/09 12:40:03;;;;;;;5.00;4.60;;;13.20;98.90;;;;;;5032477;28;20411;-72
2022/02/09 12:42:37;;;;;;;5.60;5.10;;;13.10;99.00;;;;;;5031781;28;20802;-71
2022/02/09 12:45:12;;;;;;;5.83;5.33;;;13.10;99.40;;;;;;5032456;28;20481;-71
2022/02/09 12:47:50;;;;;;;5.87;5.40;;;13.10;99.50;;;;;;5032220;28;20444;-71
2022/02/09 12:50:30;;;;;;;6.60;6.00;;;12.90;99.20;;;;;;5031838;28;20411;-71
2022/02/09 12:52:56;;;;;;;6.57;6.03;;;12.80;99.60;;;;;;5032330;28;20432;-72
2022/02/09 12:55:27;;;;;;;6.40;5.90;;;12.80;99.80;;;;;;5031744;28;20504;-71
2022/02/09 12:58:00;;;;;;;8.30;7.60;;;12.80;99.90;;;;;;5032352;28;20183;-71
2022/02/09 13:00:38;;;;;;;6.13;5.63;;;12.80;99.90;;;;;;5031759;28;20402;-71
2022/02/09 13:03:13;;;;;;;6.37;5.80;;;12.80;99.90;;;;;;5031622;28;20404;-71
2022/02/09 13:05:49;;;;;;;6.50;5.97;;;12.80;99.90;;;;;;5031984;28;20404;-71
2022/02/09 13:08:26;;;;;;;6.27;5.77;;;12.80;99.90;;;;;;5032780;28;20391;-72
2022/02/09 13:11:15;;;;;;;6.23;5.73;;;12.80;99.90;;;;;;5018497;28;20410;-71
2022/02/09 13:13:44;;;;;;;6.47;5.97;;;12.60;99.90;;;;;;5036016;28;20453;-71
2022/02/09 13:16:23;;;;;;;8.63;6.30;;;12.70;99.90;;;;;;5035395;28;20401;-72
2022/02/09 13:19:36;;;;;;;5.30;4.90;;;12.60;99.90;;;;;;5035331;28;20458;-72
2022/02/09 13:25:44;;;;;;;6.13;5.53;;;12.60;99.90;;;;;;5035812;28;20404;-72
2022/02/09 14:07:39;;;;;;;5.60;5.10;;;12.40;99.90;;;;;;4953903;29;20425;-72
2022/02/09 14:15:32;;;;;;;5.20;4.70;;;12.40;99.90;;;;;;5034254;28;20409;-72
2022/02/09 14:18:31;;;;;;;5.43;4.90;;;12.40;99.90;;;;;;5034715;28;20421;-72
2022/02/09 14:31:45;;;;;;;5.97;5.50;;;12.40;99.90;;;;;;5034530;28;20752;-72
2022/02/09 14:47:20;;;;;;;9.43;7.40;;;12.70;99.90;;;;;;5035079;28;20476;-72
2022/02/09 14:59:08;;;;;;;4.83;4.40;;;12.60;99.50;;;;;;5053975;28;20492;-72
2022/02/09 15:01:42;;;;;;;4.57;4.13;;;12.60;99.70;;;;;;5053031;28;20455;-72
2022/02/09 15:09:50;;;;;;;9.10;4.30;;;12.70;99.30;;;;;;5007582;28;20209;-72
2022/02/09 15:15:02;;;;;;;6.37;4.37;;;12.80;98.90;;;;;;5028625;28;20933;-72
2022/02/09 15:18:11;;;;;;;5.20;4.70;;;12.80;99.00;;;;;;5033066;28;20421;-72
2022/02/09 15:22:55;;;;;;;4.10;3.80;;;12.80;99.30;;;;;;5037984;28;20470;-71
2022/02/09 15:25:22;;;;;;;5.67;5.17;;;12.70;98.90;;;;;;5033867;28;20198;-72
2022/02/09 15:27:53;;;;;;;6.03;5.60;;;12.80;99.00;;;;;;5032596;28;20421;-72
2022/02/09 15:30:19;;;;;;;4.93;4.43;;;12.70;98.70;;;;;;5032574;28;20418;-75
2022/02/09 15:32:50;;;;;;;3.57;2.93;;;12.70;98.60;;;;;;5031704;28;20485;-72
2022/02/09 15:35:23;;;;;;;7.87;3.40;;;12.70;98.50;;;;;;5031840;28;20190;-74
2022/02/09 15:37:58;;;;;;;4.07;3.77;;;12.70;98.80;;;;;;5040769;28;20507;-72
2022/02/09 16:07:45;;;;;;;4.23;3.87;;;12.80;97.90;;;;;;5014411;28;20950;-72
2022/02/09 16:09:52;;;;;;;5.60;5.10;;;12.80;97.80;;;;;;5044728;28;21834;-72
2022/02/09 16:23:11;;;;;;;3.80;3.43;;;12.70;97.70;;;;;;5031946;28;20422;-72
2022/02/09 16:26:15;;;;;;;4.43;4.23;;;12.70;97.80;;;;;;5013707;28;20450;-72
2022/02/09 16:47:02;;;;;;;7.10;5.47;;;12.70;98.40;;;;;;5051887;28;20435;-72
2022/02/09 16:52:19;;;;;;;8.60;7.90;;;12.80;98.50;;;;;;5035918;28;20453;-72
2022/02/09 16:54:57;;;;;;;4.87;4.57;;;12.80;98.30;;;;;;5018008;28;20517;-72
2022/02/09 17:08:24;;;;;;;5.60;5.20;;;12.70;98.40;;;;;;5035288;28;20466;-74
2022/02/09 17:19:22;;;;;;;7.90;5.77;;;12.80;98.50;;;;;;5054442;28;20419;-72
2022/02/09 17:21:31;;;;;;;7.07;5.40;;;12.70;98.50;;;;;;5036589;28;20478;-72
2022/02/09 17:24:03;;;;;;;6.93;4.63;;;12.70;98.80;;;;;;5074878;28;20482;-72
2022/02/09 17:26:30;;;;;;;6.83;6.30;;;12.70;98.50;;;;;;5075189;28;20409;-72
2022/02/09 17:29:02;;;;;;;6.37;5.87;;;12.70;98.70;;;;;;5074298;28;20421;-72
2022/02/09 17:57:54;;;;;;;7.43;6.83;;;12.70;99.90;;;;;;5055043;28;20416;-72
2022/02/09 18:00:20;;;;;;;8.73;7.93;;;12.60;99.90;;;;;;5054953;28;20175;-72
2022/02/09 18:02:51;;;;;;;7.87;7.27;;;12.60;99.90;;;;;;5053740;28;20475;-74
2022/02/09 18:07:57;;;;;;;6.60;5.33;;;12.60;99.90;;;;;;5069835;28;20420;-74
2022/02/09 18:10:27;;;;;;;6.43;5.80;;;12.60;99.80;;;;;;5063661;28;20421;-73
2022/02/09 18:44:44;;;;;;;9.60;8.80;;;12.80;98.60;;;;;;5050343;28;20571;-72
2022/02/09 18:47:43;;;;;;;7.73;5.87;;;12.80;98.40;;;;;;5043951;28;20553;-72
2022/02/09 19:03:34;;;;;;;6.80;6.40;;;12.70;97.90;;;;;;5033761;28;20442;-75
2022/02/09 19:06:11;;;;;;;5.50;5.10;;;12.70;97.60;;;;;;5033786;28;20564;-75
2022/02/09 19:08:58;;;;;;;6.40;6.10;;;12.70;97.50;;;;;;5033024;28;20418;-75
2022/02/09 19:16:57;;;;;;;5.23;4.73;;;12.70;97.40;;;;;;5014411;28;20994;-74
2022/02/09 19:30:11;;;;;;;9.30;8.10;;;13.00;96.60;;;;;;5032208;28;20406;-75
2022/02/09 19:46:34;;;;;;;8.07;7.27;;;13.10;95.90;;;;;;5052627;28;20753;-75
2022/02/09 19:56:48;;;;;;;90.03;58.13;;;13.10;96.70;;;;;;5031470;28;20416;-75
2022/02/09 19:59:19;;;;;;;13.77;11.57;;;13.10;96.60;;;;;;5032563;28;20408;-75
2022/02/09 20:01:46;;;;;;;7.50;6.80;;;13.20;96.30;;;;;;5013731;28;20470;-75
2022/02/09 20:04:13;;;;;;;8.80;8.10;;;13.20;96.00;;;;;;5032367;28;20936;-75
2022/02/09 20:06:39;;;;;;;7.80;6.33;;;13.10;96.20;;;;;;5031624;28;20470;-75
2022/02/09 20:09:06;;;;;;;10.73;9.73;;;13.10;96.50;;;;;;5014677;28;20445;-75
2022/02/09 20:11:32;;;;;;;7.70;6.90;;;13.20;96.30;;;;;;5031547;28;20521;-74
2022/02/09 20:13:58;;;;;;;9.00;8.30;;;13.20;96.40;;;;;;5032246;28;20416;-75
2022/02/09 20:16:24;;;;;;;7.60;6.00;;;13.20;96.10;;;;;;5014538;28;20420;-75
2022/02/09 20:18:51;;;;;;;7.17;6.57;;;13.20;96.30;;;;;;5034761;28;20183;-75
2022/02/09 20:21:22;;;;;;;8.63;7.93;;;13.20;96.40;;;;;;5051885;28;20475;-75
2022/02/09 20:23:50;;;;;;;6.50;5.87;;;13.20;96.30;;;;;;5033505;28;20890;-75
2022/02/09 20:26:16;;;;;;;8.43;7.63;;;13.20;96.30;;;;;;5036798;28;20489;-75
2022/02/09 20:28:49;;;;;;;9.80;9.00;;;13.20;96.30;;;;;;5043290;28;20839;-75
2022/02/09 20:31:20;;;;;;;8.53;7.73;;;13.20;96.40;;;;;;5034270;28;20834;-75
2022/02/09 20:33:51;;;;;;;9.00;7.90;;;13.10;96.40;;;;;;5046412;28;20896;-75
2022/02/09 20:36:18;;;;;;;8.10;7.40;;;13.10;96.40;;;;;;5014370;28;20454;-75
2022/02/09 20:38:48;;;;;;;8.63;7.83;;;13.20;96.30;;;;;;5031172;28;20496;-75
2022/02/09 20:41:15;;;;;;;7.67;6.93;;;13.10;96.50;;;;;;5035159;28;20450;-76
2022/02/09 20:44:02;;;;;;;8.60;7.80;;;13.10;96.40;;;;;;5030908;28;20427;-76
2022/02/09 20:46:30;;;;;;;8.60;7.80;;;13.20;96.40;;;;;;5036650;28;20895;-76
2022/02/09 20:48:56;;;;;;;8.70;7.90;;;13.10;96.20;;;;;;5050926;28;20414;-76
2022/02/09 20:51:22;;;;;;;8.17;7.47;;;13.20;96.90;;;;;;5051888;28;20529;-76
2022/02/09 20:53:48;;;;;;;7.67;7.00;;;13.20;97.10;;;;;;5051115;28;20167;-76
2022/02/09 20:56:14;;;;;;;8.80;7.50;;;13.10;97.10;;;;;;5051547;28;20418;-76
2022/02/09 20:58:43;;;;;;;7.73;7.10;;;13.20;97.30;;;;;;5045812;28;20176;-76
2022/02/09 21:01:16;;;;;;;8.37;7.63;;;13.20;97.20;;;;;;5014037;28;20428;-76
2022/02/09 21:03:53;;;;;;;9.17;8.30;;;13.10;97.00;;;;;;5034696;28;20431;-76
2022/02/09 21:32:56;;;;;;;12.43;9.17;;;12.70;96.70;;;;;;5047457;28;20175;-71
2022/02/09 21:52:11;;;;;;;10.90;8.90;;;12.40;98.00;;;;;;5042374;28;20418;-69
2022/02/09 22:19:31;;;;;;;8.23;7.43;;;12.10;99.50;;;;;;5040422;28;20443;-69
2022/02/09 22:22:17;;;;;;;10.37;9.17;;;12.10;99.70;;;;;;5053239;28;20467;-68
2022/02/09 22:56:49;;;;;;;9.00;8.10;;;11.70;99.90;;;;;;5032754;28;20404;-68
2022/02/09 22:59:44;;;;;;;9.07;8.17;;;11.70;99.90;;;;;;5033570;28;20421;-68
2022/02/09 23:02:10;;;;;;;9.20;8.40;;;11.70;99.90;;;;;;5031959;28;20224;-69
2022/02/09 23:05:01;;;;;;;11.13;8.63;;;11.70;99.90;;;;;;5015937;28;20782;-69
2022/02/09 23:07:41;;;;;;;10.27;8.90;;;11.70;99.90;;;;;;5033514;28;20476;-68
2022/02/09 23:10:21;;;;;;;9.67;8.67;;;11.60;99.90;;;;;;4999154;28;20427;-68
2022/02/09 23:13:00;;;;;;;12.70;10.90;;;11.60;99.90;;;;;;5032960;28;20410;-69
2022/02/09 23:15:35;;;;;;;10.90;8.73;;;11.60;99.90;;;;;;5043846;28;20424;-69
2022/02/09 23:21:12;;;;;;;12.00;9.30;;;11.70;99.90;;;;;;5053140;28;20416;-69
